createdAt,value
2018-09-29T00:00:07.962Z,98.20
2018-09-29T00:05:14.050Z,98.50
2018-09-29T00:10:21.346Z,98.80
2018-09-29T00:15:25.143Z,98.60
2018-09-29T00:20:33.857Z,98.70
2018-09-29T00:25:38.871Z,98.70
2018-09-29T00:30:46.260Z,98.70
2018-09-29T00:35:49.947Z,98.70
2018-09-29T00:40:56.287Z,98.80
2018-09-29T00:46:00.208Z,98.70
2018-09-29T00:51:05.785Z,98.10
2018-09-29T00:56:09.510Z,97.90
2018-09-29T01:01:13.151Z,98.30
2018-09-29T01:06:20.596Z,97.80
2018-09-29T01:11:24.389Z,98.30
2018-09-29T01:16:28.866Z,97.80
2018-09-29T01:21:32.725Z,97.70
2018-09-29T01:26:36.441Z,98.00
2018-09-29T01:31:41.575Z,98.00
2018-09-29T01:36:45.464Z,98.60
2018-09-29T01:41:50.044Z,97.60
2018-09-29T01:46:53.660Z,98.00
2018-09-29T01:51:57.384Z,98.50
2018-09-29T01:57:02.072Z,98.50
2018-09-29T02:02:05.798Z,99.00
2018-09-29T02:07:09.579Z,99.40
2018-09-29T02:12:13.388Z,97.50
2018-09-29T02:17:17.161Z,97.30
2018-09-29T02:22:20.776Z,97.40
2018-09-29T02:27:24.492Z,97.80
2018-09-29T02:32:28.692Z,98.30
2018-09-29T02:37:33.458Z,98.70
2018-09-29T02:42:37.313Z,98.70
2018-09-29T02:47:41.080Z,98.50
2018-09-29T02:52:44.797Z,99.00
2018-09-29T02:57:48.520Z,99.30
2018-09-29T03:02:53.197Z,98.50
2018-09-29T03:07:56.821Z,98.50
2018-09-29T03:13:00.448Z,97.90
2018-09-29T03:18:04.167Z,98.10
2018-09-29T03:23:07.851Z,98.30
2018-09-29T03:28:11.675Z,98.60
2018-09-29T03:33:15.271Z,99.10
2018-09-29T03:38:18.994Z,98.40
2018-09-29T03:43:22.693Z,98.00
2018-09-29T03:48:26.316Z,98.40
2018-09-29T03:53:30.489Z,98.90
2018-09-29T03:58:34.204Z,98.90
2018-09-29T04:03:38.126Z,99.10
2018-09-29T04:14:14.107Z,97.80
2018-09-29T04:19:22.241Z,98.60
2018-09-29T04:24:25.939Z,98.00
2018-09-29T04:29:29.465Z,97.70
2018-09-29T04:34:33.034Z,98.40
2018-09-29T04:39:36.783Z,98.40
2018-09-29T04:44:42.465Z,98.50
2018-09-29T04:49:46.154Z,98.50
2018-09-29T04:54:49.739Z,98.90
2018-09-29T04:59:53.341Z,99.00
2018-09-29T05:05:01.845Z,98.50
2018-09-29T05:10:05.430Z,98.50
2018-09-29T05:15:09.281Z,98.40
2018-09-29T05:20:12.910Z,98.70
2018-09-29T05:25:17.551Z,98.30
2018-09-29T05:30:21.482Z,98.80
2018-09-29T05:35:26.115Z,98.90
2018-09-29T05:40:29.716Z,98.90
2018-09-29T05:45:33.524Z,99.00
2018-09-29T05:50:37.230Z,99.10
2018-09-29T05:55:40.945Z,99.80
2018-09-29T06:00:46.549Z,99.50
2018-09-29T06:05:50.201Z,99.20
2018-09-29T06:10:53.886Z,98.30
2018-09-29T06:15:58.587Z,98.70
2018-09-29T06:21:02.494Z,98.80
2018-09-29T06:26:06.123Z,99.40
2018-09-29T06:31:09.871Z,99.40
2018-09-29T06:36:13.478Z,99.30
2018-09-29T06:41:18.230Z,99.10
2018-09-29T06:46:25.734Z,99.70
2018-09-29T06:51:29.427Z,99.00
2018-09-29T06:56:34.044Z,99.10
2018-09-29T07:01:37.754Z,99.60
2018-09-29T07:06:47.250Z,99.70
2018-09-29T07:11:50.883Z,99.90
2018-09-29T07:16:56.606Z,99.90
2018-09-29T07:22:00.229Z,99.90
2018-09-29T07:27:03.935Z,99.90
2018-09-29T07:32:13.065Z,99.90
2018-09-29T07:37:20.941Z,99.90
2018-09-29T07:42:28.196Z,99.80
2018-09-29T07:47:31.937Z,99.80
2018-09-29T07:52:35.694Z,98.90
2018-09-29T07:57:39.270Z,98.60
2018-09-29T08:02:42.995Z,98.50
2018-09-29T08:07:46.839Z,97.00
2018-09-29T08:12:50.463Z,97.60
2018-09-29T08:17:54.170Z,95.00
2018-09-29T08:22:57.875Z,93.20
2018-09-29T08:28:02.480Z,91.00
2018-09-29T08:33:10.826Z,89.60
2018-09-29T08:38:14.397Z,88.90
2018-09-29T08:43:18.004Z,88.50
2018-09-29T08:48:21.902Z,87.90
2018-09-29T08:53:27.647Z,82.30
2018-09-29T08:58:31.700Z,86.80
2018-09-29T09:03:35.696Z,85.20
2018-09-29T09:08:39.355Z,84.30
2018-09-29T09:13:46.909Z,78.00
2018-09-29T09:18:50.493Z,82.00
2018-09-29T09:23:54.236Z,81.60
2018-09-29T09:28:57.954Z,76.20
2018-09-29T09:34:01.761Z,77.30
2018-09-29T09:39:11.563Z,73.10
2018-09-29T09:44:16.070Z,70.60
2018-09-29T09:49:19.886Z,68.70
2018-09-29T09:54:23.645Z,63.60
2018-09-29T09:59:27.202Z,61.70
2018-09-29T10:04:30.783Z,59.70
2018-09-29T10:09:35.638Z,59.80
2018-09-29T10:14:39.447Z,57.60
2018-09-29T10:19:43.283Z,56.30
2018-09-29T10:24:48.011Z,56.80
2018-09-29T10:29:51.850Z,55.70
2018-09-29T10:34:55.479Z,54.70
2018-09-29T10:40:00.094Z,56.50
2018-09-29T10:45:04.707Z,58.50
2018-09-29T10:50:08.507Z,58.50
2018-09-29T10:55:12.174Z,55.20
2018-09-29T11:00:16.009Z,60.00
2018-09-29T11:05:20.045Z,55.50
2018-09-29T11:15:29.404Z,56.70
2018-09-29T11:20:34.192Z,58.30
2018-09-29T11:25:38.804Z,64.50
2018-09-29T11:30:42.407Z,63.00
2018-09-29T11:35:46.373Z,63.00
2018-09-29T11:40:50.047Z,61.10
2018-09-29T11:45:53.726Z,59.50
2018-09-29T11:50:58.530Z,60.50
2018-09-29T11:56:03.261Z,60.40
2018-09-29T12:01:08.563Z,58.10
2018-09-29T12:06:14.239Z,55.50
2018-09-29T12:11:18.086Z,54.90
2018-09-29T12:16:21.734Z,56.70
2018-09-29T12:21:25.349Z,55.90
2018-09-29T12:26:29.016Z,57.70
2018-09-29T12:31:32.533Z,58.50
2018-09-29T12:36:36.217Z,56.30
2018-09-29T12:41:40.174Z,57.30
2018-09-29T12:46:43.843Z,56.50
2018-09-29T12:51:47.574Z,57.40
2018-09-29T12:56:51.202Z,59.30
2018-09-29T13:01:56.043Z,53.50
2018-09-29T13:06:59.623Z,58.00
2018-09-29T13:12:03.306Z,57.00
2018-09-29T13:17:06.938Z,57.80
2018-09-29T13:22:10.535Z,60.10
2018-09-29T13:27:14.066Z,57.80
2018-09-29T13:32:17.678Z,55.80
2018-09-29T13:37:21.306Z,54.80
2018-09-29T13:42:24.910Z,53.70
2018-09-29T13:47:28.474Z,56.20
2018-09-29T13:52:32.174Z,56.00
2018-09-29T13:57:35.735Z,56.00
2018-09-29T14:02:39.557Z,55.20
2018-09-29T14:07:43.178Z,57.70
2018-09-29T14:12:46.878Z,57.10
2018-09-29T14:17:50.574Z,56.30
2018-09-29T14:22:54.107Z,55.00
2018-09-29T14:27:57.964Z,55.90
2018-09-29T14:33:01.580Z,55.00
2018-09-29T14:38:05.289Z,56.20
2018-09-29T14:43:08.998Z,55.80
2018-09-29T14:48:12.559Z,58.40
2018-09-29T14:53:16.162Z,54.60
2018-09-29T14:58:19.799Z,55.90
2018-09-29T15:03:23.457Z,54.90
2018-09-29T15:08:27.148Z,56.40
2018-09-29T15:13:30.726Z,52.50
2018-09-29T15:18:34.382Z,53.50
2018-09-29T15:23:37.936Z,56.70
2018-09-29T15:28:54.570Z,57.40
2018-09-29T15:33:58.157Z,54.30
2018-09-29T15:39:01.814Z,54.60
2018-09-29T15:44:05.367Z,55.90
2018-09-29T15:49:09.234Z,56.80
2018-09-29T15:54:12.963Z,55.80
2018-09-29T15:59:16.559Z,54.10
2018-09-29T16:04:20.324Z,53.80
2018-09-29T16:09:23.989Z,53.90
2018-09-29T16:14:27.674Z,54.80
2018-09-29T16:19:31.278Z,56.20
2018-09-29T16:24:34.906Z,57.80
2018-09-29T16:29:38.593Z,56.60
2018-09-29T16:34:42.157Z,56.40
2018-09-29T16:39:45.783Z,57.30
2018-09-29T16:44:49.382Z,58.90
2018-09-29T16:49:52.978Z,57.20
2018-09-29T16:54:57.626Z,57.40
2018-09-29T17:00:01.310Z,58.80
2018-09-29T17:05:05.042Z,58.20
2018-09-29T17:10:08.615Z,59.20
2018-09-29T17:15:12.174Z,60.40
2018-09-29T17:20:15.911Z,64.90
2018-09-29T17:25:19.480Z,68.50
2018-09-29T17:30:23.058Z,71.10
2018-09-29T17:35:26.722Z,69.30
2018-09-29T17:40:30.306Z,72.40
2018-09-29T17:45:34.909Z,71.20
2018-09-29T17:50:39.948Z,74.30
2018-09-29T17:55:43.737Z,74.90
2018-09-29T18:00:47.338Z,77.60
2018-09-29T18:05:50.992Z,77.60
2018-09-29T18:10:54.730Z,80.40
2018-09-29T18:15:58.574Z,79.30
2018-09-29T18:21:02.286Z,78.10
2018-09-29T18:26:08.314Z,79.30
2018-09-29T18:31:12.382Z,80.70
2018-09-29T18:36:16.239Z,80.60
2018-09-29T18:41:20.947Z,81.60
2018-09-29T18:46:24.507Z,84.10
2018-09-29T18:51:28.613Z,82.90
2018-09-29T18:56:33.099Z,84.70
2018-09-29T19:01:36.741Z,83.60
2018-09-29T19:06:40.416Z,85.70
2018-09-29T19:11:45.708Z,85.80
2018-09-29T19:16:49.412Z,85.00
2018-09-29T19:21:55.175Z,87.20
2018-09-29T19:26:58.891Z,85.30
2018-09-29T19:32:04.820Z,87.10
2018-09-29T19:37:08.452Z,88.40
2018-09-29T19:42:12.546Z,87.80
2018-09-29T19:47:16.261Z,90.20
2018-09-29T19:52:19.859Z,90.80
2018-09-29T19:57:23.614Z,91.20
2018-09-29T20:02:28.870Z,91.90
2018-09-29T20:07:32.514Z,90.90
2018-09-29T20:12:36.141Z,90.10
2018-09-29T20:17:39.830Z,89.50
2018-09-29T20:22:43.702Z,90.60
2018-09-29T20:27:49.377Z,91.80
2018-09-29T20:32:53.479Z,92.10
2018-09-29T20:37:57.026Z,91.40
2018-09-29T20:43:02.885Z,90.10
2018-09-29T20:48:06.490Z,91.40
2018-09-29T20:53:10.094Z,90.90
2018-09-29T20:58:13.801Z,91.40
2018-09-29T21:03:18.362Z,91.50
2018-09-29T21:08:22.791Z,90.90
2018-09-29T21:13:26.729Z,91.20
2018-09-29T21:18:32.371Z,91.30
2018-09-29T21:23:36.207Z,91.00
2018-09-29T21:28:40.028Z,91.60
2018-09-29T21:33:43.780Z,91.90
2018-09-29T21:38:47.448Z,92.50
2018-09-29T21:43:51.265Z,92.90
2018-09-29T21:48:54.963Z,91.90
2018-09-29T21:54:00.051Z,92.50
2018-09-29T21:59:07.202Z,92.40
2018-09-29T22:04:11.222Z,92.50
2018-09-29T22:09:21.255Z,93.00
2018-09-29T22:14:25.215Z,93.20
2018-09-29T22:19:30.063Z,93.40
2018-09-29T22:24:34.617Z,94.20
2018-09-29T22:29:38.260Z,94.40
2018-09-29T22:34:42.213Z,94.50
2018-09-29T22:39:46.321Z,94.60
2018-09-29T22:44:50.757Z,94.80
2018-09-29T22:49:54.924Z,92.90
2018-09-29T22:54:58.926Z,92.60
2018-09-29T23:00:02.728Z,92.20
2018-09-29T23:05:07.454Z,93.40
2018-09-29T23:10:12.197Z,93.60
2018-09-29T23:15:15.873Z,93.70
2018-09-29T23:20:19.715Z,93.80
2018-09-29T23:25:24.338Z,93.60
2018-09-29T23:30:28.446Z,94.60
2018-09-29T23:35:33.251Z,94.90
2018-09-29T23:40:37.028Z,95.00
2018-09-29T23:45:41.504Z,95.00
2018-09-29T23:50:45.239Z,94.10
2018-09-29T23:55:50.062Z,93.60
